Hanford, California
Current Conditions -  °F | °C
As of 10:53 PM on Saturday 25 Oct 2014 (Local Time) from KHJO Reporting Station
Few Clouds Few Clouds  
Wind Chill: 64°   Ceiling: Unl
Heat Index: 64°   Visibility: 10mi
Dew Point: 51°   Wind: 17mph
Humidity: 63%   Direction: 310°NW
Pressure: 30.09"   Gusts: NA
Location:  36.33°N, 119.64°W
Report Text: KHJO 260553Z AUTO 31015KT 10SM FEW060 18/11 A3009 RMK AO2 SLP188 T01780106 10222 20178 51010
Loading
Personal Weather Stations






























Interactive Weather Map
Tropical Storm Tracking
New forecast layout! Learn more

10-Day Weather Forecast

Advertisements
Track Severe Weather on mobile